Time;durP1;ratioP1;P1;durP2;ratioP2;P2;SDS_P1;SDS_P2;PMS_P1;PMS_P2;Temp;Humidity;BMP_temperature;BMP_pressure;BME280_temperature;BME280_humidity;BME280_pressure;Samples;Min_cycle;Max_cycle;Signal;HPM_P1;HPM_P2
2024/02/28 00:01:37;;;;;;;25.25;9.73;;;8.50;96.30;;;;;;5089158;28;20040;-71
2024/02/28 00:04:03;;;;;;;23.80;8.07;;;8.40;96.20;;;;;;5105776;28;20023;-71
2024/02/28 00:06:28;;;;;;;27.67;11.80;;;8.40;96.30;;;;;;5107668;28;20042;-71
2024/02/28 00:08:54;;;;;;;23.40;9.55;;;8.40;96.30;;;;;;5102321;28;20060;-71
2024/02/28 00:11:21;;;;;;;15.30;7.47;;;8.30;96.20;;;;;;5089823;28;20035;-71
2024/02/28 00:13:46;;;;;;;20.10;8.10;;;8.20;96.50;;;;;;5106433;28;20023;-71
2024/02/28 00:16:12;;;;;;;13.25;6.75;;;8.20;96.60;;;;;;5095268;28;20731;-71
2024/02/28 00:18:38;;;;;;;24.02;10.55;;;8.20;96.80;;;;;;5106786;28;20511;-71
2024/02/28 00:21:03;;;;;;;23.00;10.23;;;8.20;96.80;;;;;;5094553;28;20032;-71
2024/02/28 00:23:30;;;;;;;34.78;13.35;;;8.20;96.80;;;;;;5095442;28;20032;-71
2024/02/28 00:25:56;;;;;;;22.77;9.13;;;8.20;96.80;;;;;;5107295;28;20077;-71
2024/02/28 00:28:21;;;;;;;18.30;7.07;;;8.20;96.80;;;;;;5104669;28;20423;-71
2024/02/28 00:30:47;;;;;;;20.23;8.82;;;8.20;96.80;;;;;;5098426;28;20016;-71
2024/02/28 00:33:13;;;;;;;31.08;12.55;;;8.10;96.80;;;;;;5112183;28;20035;-71
2024/02/28 00:35:39;;;;;;;27.73;12.25;;;8.20;96.80;;;;;;5109199;27;20852;-71
2024/02/28 00:38:05;;;;;;;16.27;6.47;;;8.20;96.70;;;;;;5112189;28;20479;-71
2024/02/28 00:40:31;;;;;;;31.35;11.65;;;8.20;96.70;;;;;;5095341;28;20032;-71
2024/02/28 00:42:59;;;;;;;31.13;11.95;;;8.20;96.70;;;;;;5109471;28;20030;-71
2024/02/28 00:45:25;;;;;;;13.65;6.65;;;8.30;96.70;;;;;;5100853;28;20028;-71
2024/02/28 00:47:50;;;;;;;32.15;13.15;;;8.30;96.70;;;;;;5094069;28;20036;-71
2024/02/28 00:50:16;;;;;;;28.55;12.30;;;8.30;96.70;;;;;;5094855;28;20111;-71
2024/02/28 00:52:42;;;;;;;21.52;9.88;;;8.30;96.70;;;;;;5106272;28;20052;-71
2024/02/28 00:55:08;;;;;;;20.50;7.90;;;8.30;96.60;;;;;;5104051;28;20038;-69
2024/02/28 00:57:36;;;;;;;12.18;7.25;;;8.30;96.60;;;;;;5099298;28;20023;-70
2024/02/28 01:00:02;;;;;;;5.07;3.47;;;8.30;96.50;;;;;;5102004;28;20088;-69
2024/02/28 01:02:28;;;;;;;7.65;4.25;;;8.30;96.50;;;;;;5098763;28;20114;-69
2024/02/28 01:04:56;;;;;;;13.00;5.32;;;8.20;96.60;;;;;;5102870;28;20163;-69
2024/02/28 01:07:21;;;;;;;8.55;4.35;;;8.20;96.50;;;;;;5097277;28;21408;-70
2024/02/28 01:09:47;;;;;;;20.95;8.98;;;8.20;96.50;;;;;;5099210;28;20028;-70
2024/02/28 01:12:13;;;;;;;20.58;8.10;;;8.20;96.60;;;;;;5103658;27;20075;-69
2024/02/28 01:14:38;;;;;;;9.90;6.13;;;8.10;96.90;;;;;;5104557;28;20048;-70
2024/02/28 01:17:04;;;;;;;21.98;9.25;;;8.10;96.70;;;;;;5085626;28;20055;-69
2024/02/28 01:19:31;;;;;;;7.75;4.93;;;8.10;96.80;;;;;;5107565;27;20109;-69
2024/02/28 01:21:57;;;;;;;16.88;6.13;;;8.00;96.60;;;;;;5098121;28;20032;-69
2024/02/28 01:24:22;;;;;;;14.10;5.85;;;8.00;96.80;;;;;;5104815;28;20034;-69
2024/02/28 01:26:48;;;;;;;11.98;4.60;;;7.90;96.80;;;;;;5091338;28;20032;-70
2024/02/28 01:29:14;;;;;;;23.17;10.73;;;7.90;96.90;;;;;;5101243;28;20470;-69
2024/02/28 01:31:39;;;;;;;22.77;8.65;;;7.90;96.90;;;;;;5107012;28;20147;-69
2024/02/28 01:34:05;;;;;;;14.82;5.53;;;8.00;96.90;;;;;;5101059;28;20032;-69
2024/02/28 01:36:31;;;;;;;21.23;9.63;;;8.00;96.90;;;;;;5105364;28;20038;-69
2024/02/28 01:38:56;;;;;;;6.30;4.10;;;7.90;96.90;;;;;;5108089;28;20447;-69
2024/02/28 01:41:22;;;;;;;13.07;6.25;;;7.90;97.00;;;;;;5091599;28;20032;-69
2024/02/28 01:43:47;;;;;;;6.25;4.38;;;7.90;97.00;;;;;;5094928;28;20073;-70
2024/02/28 01:46:25;;;;;;;33.28;13.02;;;7.90;97.00;;;;;;5094638;28;20036;-70
2024/02/28 01:48:52;;;;;;;11.68;5.93;;;8.00;97.00;;;;;;5109168;28;20040;-70
2024/02/28 01:51:18;;;;;;;17.63;7.20;;;8.00;96.90;;;;;;5095749;28;20115;-70
2024/02/28 01:53:45;;;;;;;5.88;4.00;;;8.00;96.90;;;;;;5108123;28;20139;-70
2024/02/28 01:56:16;;;;;;;18.48;8.40;;;8.10;96.90;;;;;;5106996;28;20118;-70
2024/02/28 01:58:43;;;;;;;15.05;6.25;;;8.10;96.90;;;;;;5089837;28;20437;-70
2024/02/28 02:01:11;;;;;;;24.20;9.32;;;8.10;96.80;;;;;;5097102;28;20035;-70
2024/02/28 02:03:36;;;;;;;25.38;9.77;;;8.10;96.80;;;;;;5102411;28;20032;-70
2024/02/28 02:06:03;;;;;;;19.25;7.75;;;8.10;96.80;;;;;;5101994;28;20042;-70
2024/02/28 02:08:29;;;;;;;34.72;12.98;;;8.10;96.80;;;;;;5091600;28;20664;-70
2024/02/28 02:10:55;;;;;;;23.90;10.77;;;8.10;96.90;;;;;;5101080;28;20028;-70
2024/02/28 02:13:21;;;;;;;13.18;7.45;;;8.10;96.90;;;;;;5099592;28;20034;-70
2024/02/28 02:15:46;;;;;;;18.10;5.65;;;8.10;96.90;;;;;;5095512;28;20047;-70
2024/02/28 02:18:12;;;;;;;17.58;8.13;;;8.00;96.80;;;;;;5096331;28;20134;-70
2024/02/28 02:20:44;;;;;;;13.10;6.65;;;7.90;96.90;;;;;;5097926;28;20416;-70
2024/02/28 02:23:10;;;;;;;12.05;7.50;;;8.00;97.00;;;;;;5090061;28;20036;-70
2024/02/28 02:25:47;;;;;;;24.00;10.57;;;8.00;96.90;;;;;;5101094;28;20611;-70
2024/02/28 02:28:12;;;;;;;9.25;4.55;;;8.10;96.90;;;;;;5097321;28;20123;-70
2024/02/28 02:30:39;;;;;;;10.77;5.03;;;8.00;96.80;;;;;;5094854;28;20544;-70
2024/02/28 02:33:05;;;;;;;14.65;6.18;;;8.00;96.80;;;;;;5099010;28;20130;-69
2024/02/28 02:35:31;;;;;;;11.15;4.72;;;7.90;96.90;;;;;;5093645;28;20119;-70
2024/02/28 02:37:56;;;;;;;10.35;4.63;;;7.90;97.00;;;;;;5096897;28;20127;-70
2024/02/28 02:40:22;;;;;;;26.92;11.70;;;7.90;97.00;;;;;;5092477;28;20046;-70
2024/02/28 02:42:47;;;;;;;16.38;8.15;;;8.00;97.00;;;;;;5101503;28;20078;-70
2024/02/28 02:45:13;;;;;;;25.80;11.55;;;8.00;97.00;;;;;;5091402;28;20080;-70
2024/02/28 02:47:39;;;;;;;15.60;6.60;;;8.00;96.90;;;;;;5094561;28;20039;-70
2024/02/28 02:50:05;;;;;;;10.05;4.68;;;8.00;96.90;;;;;;5109801;28;20076;-70
2024/02/28 02:52:31;;;;;;;11.13;4.38;;;8.00;96.70;;;;;;5103314;28;20048;-70
2024/02/28 02:54:56;;;;;;;10.95;4.80;;;8.00;96.70;;;;;;5092054;28;20032;-70
2024/02/28 02:57:22;;;;;;;20.60;10.45;;;8.00;96.80;;;;;;5094681;28;20073;-70
2024/02/28 02:59:47;;;;;;;8.40;3.55;;;8.00;96.80;;;;;;5099645;28;20035;-70
2024/02/28 03:02:13;;;;;;;3.03;1.95;;;8.00;96.80;;;;;;5095595;28;20115;-70
2024/02/28 03:04:39;;;;;;;12.73;6.22;;;8.00;96.80;;;;;;5100135;28;20118;-70
2024/02/28 03:07:04;;;;;;;17.85;7.45;;;8.00;96.90;;;;;;5103309;28;20040;-71
2024/02/28 03:09:30;;;;;;;17.10;5.75;;;8.00;96.90;;;;;;5096346;28;20043;-70
2024/02/28 03:11:56;;;;;;;7.90;4.43;;;8.00;96.80;;;;;;5098951;28;20031;-70
2024/02/28 03:14:25;;;;;;;14.45;8.52;;;8.00;96.80;;;;;;5094884;28;20528;-70
2024/02/28 03:16:50;;;;;;;9.88;4.75;;;8.00;96.90;;;;;;5097212;28;20035;-72
2024/02/28 03:19:20;;;;;;;24.00;10.82;;;8.00;96.90;;;;;;5100556;28;20028;-71
2024/02/28 03:21:49;;;;;;;25.48;12.73;;;8.00;96.90;;;;;;5105286;28;20035;-71
2024/02/28 03:24:14;;;;;;;11.93;6.13;;;8.00;96.90;;;;;;5091123;28;20036;-71
2024/02/28 03:26:40;;;;;;;18.83;9.07;;;8.00;96.80;;;;;;5090308;28;20079;-71
2024/02/28 03:29:05;;;;;;;9.55;4.15;;;8.00;96.80;;;;;;5100825;28;20024;-71
2024/02/28 03:31:31;;;;;;;8.05;4.75;;;8.00;96.80;;;;;;5102340;28;20390;-71
2024/02/28 03:33:57;;;;;;;20.50;9.38;;;8.00;96.90;;;;;;5096792;28;20038;-71
2024/02/28 03:36:22;;;;;;;26.55;12.73;;;8.00;96.90;;;;;;5104347;28;20051;-71
2024/02/28 03:38:48;;;;;;;24.45;10.32;;;8.00;96.90;;;;;;5088982;28;20122;-71
2024/02/28 03:41:14;;;;;;;18.33;8.02;;;8.00;96.90;;;;;;5095643;28;20152;-71
2024/02/28 03:43:39;;;;;;;27.08;12.63;;;8.00;96.80;;;;;;5096470;28;20523;-71
2024/02/28 03:46:05;;;;;;;24.40;10.75;;;8.10;96.80;;;;;;5088308;28;20088;-71
2024/02/28 03:48:33;;;;;;;23.95;10.93;;;8.10;96.70;;;;;;5108314;28;20023;-71
2024/02/28 03:50:59;;;;;;;21.75;9.07;;;8.10;96.70;;;;;;5108290;28;20035;-71
2024/02/28 03:53:24;;;;;;;22.63;9.02;;;8.10;96.60;;;;;;5093770;28;20055;-71
2024/02/28 03:55:50;;;;;;;23.65;9.23;;;8.10;96.50;;;;;;5089399;28;20028;-71
2024/02/28 03:58:16;;;;;;;15.27;6.45;;;8.10;96.60;;;;;;5099090;28;20035;-72
2024/02/28 04:00:44;;;;;;;18.67;8.35;;;8.10;96.70;;;;;;5088270;28;20032;-72
2024/02/28 04:03:10;;;;;;;3.80;2.50;;;8.10;96.70;;;;;;5100309;28;20125;-71
2024/02/28 04:05:35;;;;;;;9.02;4.85;;;8.10;96.70;;;;;;5096070;28;20055;-71
2024/02/28 04:08:01;;;;;;;14.82;7.75;;;8.10;96.60;;;;;;5097776;28;20070;-72
2024/02/28 04:10:26;;;;;;;22.58;11.65;;;8.10;96.60;;;;;;5102354;28;20031;-71
2024/02/28 04:12:52;;;;;;;30.50;10.10;;;8.10;96.60;;;;;;5091494;28;20387;-72
2024/02/28 04:15:18;;;;;;;11.40;6.18;;;8.10;96.60;;;;;;5097274;28;20063;-71
2024/02/28 04:17:43;;;;;;;10.32;4.40;;;8.10;96.60;;;;;;5088025;28;20031;-71
2024/02/28 04:20:13;;;;;;;26.98;10.57;;;8.10;96.60;;;;;;5104902;28;20024;-71
2024/02/28 04:22:39;;;;;;;28.60;12.65;;;8.00;96.60;;;;;;5107027;28;20031;-71
2024/02/28 04:25:07;;;;;;;22.55;11.40;;;8.00;96.60;;;;;;5088648;28;20028;-71
2024/02/28 04:27:33;;;;;;;12.02;4.90;;;8.10;96.60;;;;;;5087565;28;20051;-72
2024/02/28 04:29:59;;;;;;;12.07;6.28;;;8.10;96.60;;;;;;5088929;28;20032;-71
2024/02/28 04:32:24;;;;;;;20.13;9.13;;;8.10;96.50;;;;;;5086948;28;20119;-71
2024/02/28 04:34:50;;;;;;;27.50;13.30;;;8.10;96.50;;;;;;5093738;28;20216;-72
2024/02/28 04:37:16;;;;;;;15.35;8.05;;;8.10;96.60;;;;;;5096855;28;20415;-71
2024/02/28 04:39:42;;;;;;;9.27;4.45;;;8.00;96.50;;;;;;5099930;28;20104;-69
2024/02/28 04:42:07;;;;;;;21.38;9.23;;;8.10;96.50;;;;;;5097067;28;20077;-69
2024/02/28 04:44:33;;;;;;;24.45;11.65;;;8.10;96.50;;;;;;5101671;28;20430;-69
2024/02/28 04:46:59;;;;;;;25.95;12.63;;;8.10;96.50;;;;;;5094011;28;20044;-69
2024/02/28 04:49:24;;;;;;;25.75;11.50;;;8.10;96.50;;;;;;5097225;28;21066;-69
2024/02/28 04:51:50;;;;;;;28.17;13.77;;;8.10;96.50;;;;;;5096351;28;20039;-70
2024/02/28 04:54:16;;;;;;;25.80;12.35;;;8.10;96.50;;;;;;5091716;28;20067;-69
2024/02/28 04:56:42;;;;;;;25.58;10.18;;;8.10;96.50;;;;;;5090426;28;20043;-69
2024/02/28 04:59:09;;;;;;;18.60;6.72;;;8.20;96.50;;;;;;5090371;28;20028;-69
2024/02/28 05:01:35;;;;;;;14.15;7.30;;;8.20;96.50;;;;;;5089029;28;20429;-69
2024/02/28 05:04:02;;;;;;;17.40;7.18;;;8.20;96.50;;;;;;5091057;28;20036;-69
2024/02/28 05:06:28;;;;;;;22.75;9.57;;;8.10;96.40;;;;;;5111340;28;20044;-69
2024/02/28 05:08:53;;;;;;;13.73;6.82;;;8.10;96.50;;;;;;5097129;28;20523;-69
2024/02/28 05:11:19;;;;;;;25.20;12.07;;;8.10;96.50;;;;;;5095963;28;20035;-69
2024/02/28 05:13:44;;;;;;;9.57;4.50;;;8.10;96.50;;;;;;5100872;28;20021;-69
2024/02/28 05:16:14;;;;;;;9.68;4.90;;;8.20;96.60;;;;;;5102053;28;20027;-69
2024/02/28 05:18:39;;;;;;;28.85;12.15;;;8.20;96.50;;;;;;5092206;28;20036;-69
2024/02/28 05:21:05;;;;;;;11.77;5.20;;;8.20;96.50;;;;;;5103662;28;20027;-69
2024/02/28 05:23:34;;;;;;;18.30;9.20;;;8.20;96.50;;;;;;5098267;28;20036;-69
2024/02/28 05:26:06;;;;;;;31.98;10.60;;;8.20;96.50;;;;;;5097803;28;20036;-69
2024/02/28 05:28:33;;;;;;;26.25;9.65;;;8.20;96.50;;;;;;5108875;28;21862;-69
2024/02/28 05:30:59;;;;;;;30.38;11.52;;;8.10;96.50;;;;;;5090619;28;20027;-69
2024/02/28 05:33:25;;;;;;;11.57;4.97;;;8.20;96.50;;;;;;5095633;28;20115;-69
2024/02/28 05:35:51;;;;;;;26.50;11.93;;;8.20;96.50;;;;;;5107661;28;20786;-69
2024/02/28 05:38:16;;;;;;;34.05;14.38;;;8.20;96.50;;;;;;5090178;28;20061;-69
2024/02/28 05:40:45;;;;;;;32.33;14.13;;;8.20;96.50;;;;;;5094248;28;20024;-69
2024/02/28 05:43:10;;;;;;;32.95;10.70;;;8.30;96.50;;;;;;5096236;28;20031;-69
2024/02/28 05:45:36;;;;;;;19.90;7.25;;;8.30;96.50;;;;;;5098044;28;20062;-69
2024/02/28 05:48:01;;;;;;;30.55;14.98;;;8.30;96.40;;;;;;5091885;28;20044;-69
2024/02/28 05:50:29;;;;;;;24.27;10.13;;;8.30;96.40;;;;;;5098263;28;20028;-69
2024/02/28 05:52:55;;;;;;;37.95;16.05;;;8.30;96.40;;;;;;5100236;28;20055;-70
2024/02/28 05:55:24;;;;;;;25.52;12.02;;;8.30;96.40;;;;;;5098534;28;20077;-69
2024/02/28 05:57:49;;;;;;;33.42;15.48;;;8.40;96.40;;;;;;5090022;28;20043;-69
2024/02/28 06:00:15;;;;;;;10.75;5.95;;;8.30;96.30;;;;;;5093731;28;20020;-71
2024/02/28 06:02:41;;;;;;;25.60;11.27;;;8.30;96.30;;;;;;5102871;28;20036;-71
2024/02/28 06:05:08;;;;;;;22.52;8.82;;;8.30;96.30;;;;;;5093742;28;20245;-71
2024/02/28 06:07:33;;;;;;;25.42;10.68;;;8.30;96.30;;;;;;5088910;28;20048;-72
2024/02/28 06:09:59;;;;;;;33.85;12.73;;;8.30;96.30;;;;;;5100564;28;20028;-71
2024/02/28 06:12:25;;;;;;;23.42;10.05;;;8.30;96.30;;;;;;5088346;28;20092;-71
2024/02/28 06:14:50;;;;;;;26.73;11.90;;;8.40;96.30;;;;;;5092195;28;20101;-72
2024/02/28 06:17:16;;;;;;;23.75;10.88;;;8.40;96.30;;;;;;5089042;28;20121;-71
2024/02/28 06:19:42;;;;;;;19.08;8.38;;;8.30;96.30;;;;;;5095128;28;20028;-71
2024/02/28 06:22:08;;;;;;;34.47;15.38;;;8.30;96.40;;;;;;5092321;28;20083;-70
2024/02/28 06:24:34;;;;;;;15.30;7.05;;;8.30;96.40;;;;;;5102420;28;20024;-70
2024/02/28 06:27:00;;;;;;;7.60;4.18;;;8.30;96.40;;;;;;5100199;28;20067;-70
2024/02/28 06:29:25;;;;;;;13.88;7.90;;;8.30;96.50;;;;;;5095331;28;20516;-72
2024/02/28 06:31:51;;;;;;;22.27;11.55;;;8.30;96.50;;;;;;5093674;28;20043;-71
2024/02/28 06:34:18;;;;;;;20.05;8.75;;;8.30;96.50;;;;;;5092834;28;20134;-72
2024/02/28 06:36:44;;;;;;;26.83;10.00;;;8.30;96.50;;;;;;5098513;28;20058;-72
2024/02/28 06:39:10;;;;;;;30.60;14.88;;;8.30;96.50;;;;;;5090959;28;20603;-71
2024/02/28 06:41:35;;;;;;;28.35;13.75;;;8.40;96.60;;;;;;5102720;28;20367;-72
2024/02/28 06:44:01;;;;;;;22.35;10.07;;;8.30;96.50;;;;;;5093907;28;20027;-75
2024/02/28 06:46:27;;;;;;;29.95;12.90;;;8.30;96.50;;;;;;5106332;28;20035;-71
2024/02/28 06:48:53;;;;;;;30.83;11.93;;;8.40;96.60;;;;;;5097741;28;20044;-72
2024/02/28 06:51:18;;;;;;;16.15;6.75;;;8.30;96.50;;;;;;5100825;28;20429;-71
2024/02/28 06:53:44;;;;;;;36.28;13.27;;;8.30;96.70;;;;;;5091053;28;20052;-73
2024/02/28 06:56:10;;;;;;;40.30;15.35;;;8.30;96.60;;;;;;5094417;28;20039;-71
2024/02/28 06:58:35;;;;;;;9.18;4.55;;;8.30;96.70;;;;;;5102261;28;20052;-71
2024/02/28 07:01:01;;;;;;;58.85;20.98;;;8.30;96.70;;;;;;5099353;28;20028;-71
2024/02/28 07:03:27;;;;;;;35.35;14.95;;;8.30;96.70;;;;;;5101148;28;20032;-71
2024/02/28 07:05:53;;;;;;;26.80;9.27;;;8.30;96.80;;;;;;5100556;28;20390;-71
2024/02/28 07:08:20;;;;;;;9.00;5.55;;;8.40;96.80;;;;;;5090165;28;20051;-70
2024/02/28 07:10:49;;;;;;;20.30;9.05;;;8.30;96.70;;;;;;5098014;28;20032;-71
2024/02/28 07:13:17;;;;;;;14.07;6.85;;;8.40;96.80;;;;;;5089653;28;20058;-70
2024/02/28 07:15:43;;;;;;;29.50;11.23;;;8.30;96.80;;;;;;5091014;28;20046;-72
2024/02/28 07:18:09;;;;;;;25.33;9.98;;;8.30;96.80;;;;;;5091248;28;20526;-70
2024/02/28 07:20:35;;;;;;;14.40;6.45;;;8.30;96.80;;;;;;5100536;28;20073;-71
2024/02/28 07:23:03;;;;;;;34.47;13.35;;;8.30;96.90;;;;;;5097609;28;20685;-71
2024/02/28 07:25:30;;;;;;;37.65;14.00;;;8.30;96.90;;;;;;5100563;28;20456;-73
2024/02/28 07:27:59;;;;;;;48.20;18.55;;;8.30;96.90;;;;;;5106279;28;20536;-72
2024/02/28 07:30:24;;;;;;;42.33;16.23;;;8.30;97.00;;;;;;5098025;28;20404;-72
2024/02/28 07:32:50;;;;;;;31.70;13.77;;;8.40;97.00;;;;;;5090829;28;20040;-72
2024/02/28 07:35:16;;;;;;;26.08;9.75;;;8.40;97.00;;;;;;5096806;28;20027;-72
2024/02/28 07:37:41;;;;;;;28.20;10.52;;;8.40;96.90;;;;;;5095770;28;20036;-73
2024/02/28 07:40:08;;;;;;;28.40;12.27;;;8.40;96.90;;;;;;5097057;28;20570;-72
2024/02/28 07:42:34;;;;;;;27.58;10.32;;;8.30;96.90;;;;;;5098553;28;20027;-72
2024/02/28 07:45:01;;;;;;;31.38;9.63;;;8.30;97.00;;;;;;5100724;28;20028;-72
2024/02/28 07:47:26;;;;;;;35.53;12.57;;;8.20;97.10;;;;;;5105242;28;20479;-73
2024/02/28 07:49:53;;;;;;;16.20;6.78;;;8.30;97.20;;;;;;5098476;28;20158;-71
2024/02/28 07:52:22;;;;;;;11.80;4.97;;;8.30;97.30;;;;;;5088951;28;20388;-72
2024/02/28 07:54:48;;;;;;;41.53;12.60;;;8.20;97.30;;;;;;5101230;28;20127;-70
2024/02/28 07:57:15;;;;;;;38.97;10.82;;;8.20;97.40;;;;;;5094295;28;20114;-70
2024/02/28 07:59:42;;;;;;;31.73;13.10;;;8.20;97.40;;;;;;5100320;28;20031;-71
2024/02/28 08:02:12;;;;;;;55.70;19.42;;;8.30;97.50;;;;;;5089774;28;20039;-72
2024/02/28 08:04:39;;;;;;;30.95;8.77;;;8.30;97.50;;;;;;5096310;28;20036;-72
2024/02/28 08:07:05;;;;;;;31.27;10.25;;;8.30;97.40;;;;;;5090173;28;20054;-72
2024/02/28 08:09:31;;;;;;;47.22;15.18;;;8.30;97.40;;;;;;5101227;28;20364;-72
2024/02/28 08:11:58;;;;;;;14.15;7.68;;;8.30;97.40;;;;;;5104414;28;20039;-72
2024/02/28 08:14:24;;;;;;;29.20;12.35;;;8.40;97.50;;;;;;5094472;28;20028;-72
2024/02/28 08:16:50;;;;;;;45.90;16.35;;;8.40;97.50;;;;;;5095625;28;20039;-72
2024/02/28 08:19:17;;;;;;;37.75;13.25;;;8.50;97.40;;;;;;5097484;28;20544;-72
2024/02/28 08:21:43;;;;;;;31.60;10.85;;;8.50;97.40;;;;;;5102949;28;20140;-73
2024/02/28 08:24:08;;;;;;;23.23;7.28;;;8.50;97.40;;;;;;5097043;28;20212;-72
2024/02/28 08:26:35;;;;;;;17.90;5.20;;;8.50;97.40;;;;;;5099103;28;20054;-73
2024/02/28 08:29:01;;;;;;;40.05;13.88;;;8.50;97.50;;;;;;5099791;28;20376;-73
2024/02/28 08:31:27;;;;;;;32.15;12.30;;;8.40;97.80;;;;;;5094916;28;20062;-73
2024/02/28 08:33:53;;;;;;;8.00;4.80;;;8.50;97.60;;;;;;5090613;28;20038;-72
2024/02/28 08:36:19;;;;;;;12.35;5.93;;;8.40;97.60;;;;;;5093674;28;20383;-73
2024/02/28 08:38:44;;;;;;;24.75;9.48;;;8.50;97.70;;;;;;5099645;28;20039;-72
2024/02/28 08:41:13;;;;;;;24.27;11.02;;;8.50;97.80;;;;;;5098977;28;20078;-72
2024/02/28 08:43:42;;;;;;;5.63;3.25;;;8.50;97.80;;;;;;5094529;28;20080;-72
2024/02/28 08:46:07;;;;;;;11.98;6.05;;;8.50;97.80;;;;;;5093806;28;20514;-72
2024/02/28 08:48:33;;;;;;;18.08;6.97;;;8.50;97.90;;;;;;5091723;28;20079;-72
2024/02/28 08:51:02;;;;;;;17.83;8.82;;;8.40;97.90;;;;;;5091011;28;20051;-72
2024/02/28 08:53:27;;;;;;;13.77;6.53;;;8.50;98.00;;;;;;5104559;28;20086;-70
2024/02/28 08:55:53;;;;;;;18.77;6.80;;;8.40;98.00;;;;;;5094505;28;20055;-72
2024/02/28 08:58:19;;;;;;;49.63;16.77;;;8.40;98.10;;;;;;5092211;28;20036;-72
2024/02/28 09:00:47;;;;;;;50.67;16.88;;;8.50;98.20;;;;;;5090304;28;20072;-71
2024/02/28 09:03:13;;;;;;;21.33;6.70;;;8.40;98.30;;;;;;5103598;28;20559;-71
2024/02/28 09:05:38;;;;;;;9.90;4.82;;;8.50;98.30;;;;;;5091343;28;20055;-72
2024/02/28 09:08:04;;;;;;;13.98;7.55;;;8.50;98.40;;;;;;5091844;28;20463;-72
2024/02/28 09:10:34;;;;;;;28.65;12.02;;;8.50;98.40;;;;;;5101080;28;20167;-72
2024/02/28 09:12:59;;;;;;;23.00;9.35;;;8.50;98.50;;;;;;5102872;28;20097;-72
2024/02/28 09:15:25;;;;;;;28.27;10.68;;;8.50;98.50;;;;;;5090614;28;20540;-72
2024/02/28 09:17:52;;;;;;;17.17;8.25;;;8.60;98.40;;;;;;5091212;28;20032;-72
2024/02/28 09:20:17;;;;;;;32.38;10.52;;;8.60;98.50;;;;;;5108554;28;20479;-72
2024/02/28 09:22:43;;;;;;;25.77;10.88;;;8.60;98.50;;;;;;5108096;28;20080;-72
2024/02/28 09:25:09;;;;;;;10.93;5.35;;;8.60;98.60;;;;;;5111216;28;20032;-72
2024/02/28 09:27:36;;;;;;;14.55;7.05;;;8.60;98.70;;;;;;5107223;28;20043;-72
2024/02/28 09:30:02;;;;;;;13.70;6.20;;;8.60;98.80;;;;;;5109087;28;20629;-72
2024/02/28 09:32:28;;;;;;;11.25;5.47;;;8.60;98.90;;;;;;5097488;28;20031;-72
2024/02/28 09:34:54;;;;;;;16.23;7.85;;;8.60;99.00;;;;;;5097502;28;20028;-72
2024/02/28 09:37:22;;;;;;;9.35;5.07;;;8.60;99.00;;;;;;5109342;28;20508;-72
2024/02/28 09:39:48;;;;;;;19.02;8.57;;;8.70;99.10;;;;;;5100235;28;20035;-72
2024/02/28 09:42:14;;;;;;;14.93;5.85;;;8.70;99.00;;;;;;5104145;28;20111;-72
2024/02/28 09:44:43;;;;;;;21.25;8.82;;;8.70;99.10;;;;;;5091190;28;20077;-72
2024/02/28 09:47:08;;;;;;;40.50;15.70;;;8.70;99.10;;;;;;5089560;28;20043;-71
2024/02/28 09:49:37;;;;;;;9.02;4.60;;;8.70;99.20;;;;;;5091613;28;20020;-72
2024/02/28 09:52:04;;;;;;;26.92;11.90;;;8.70;99.30;;;;;;5102136;28;20117;-71
2024/02/28 09:54:29;;;;;;;8.10;4.43;;;8.80;99.40;;;;;;5103292;28;20096;-72
2024/02/28 09:56:55;;;;;;;14.45;5.75;;;8.70;99.40;;;;;;5095028;28;20115;-71
2024/02/28 09:59:24;;;;;;;19.15;8.80;;;8.80;99.50;;;;;;5111667;28;20390;-71
2024/02/28 10:02:00;;;;;;;14.82;8.57;;;8.80;99.50;;;;;;5101660;28;20035;-71
2024/02/28 10:04:27;;;;;;;15.90;6.20;;;8.90;99.50;;;;;;5107546;28;20433;-72
2024/02/28 10:06:53;;;;;;;23.40;10.57;;;8.80;99.50;;;;;;5099641;28;20161;-72
2024/02/28 10:09:19;;;;;;;16.92;8.02;;;8.90;99.60;;;;;;5094711;28;20088;-72
2024/02/28 10:11:46;;;;;;;14.93;6.55;;;8.90;99.60;;;;;;5094956;28;20028;-71
2024/02/28 10:14:16;;;;;;;22.30;9.85;;;8.90;99.70;;;;;;5102629;28;20106;-72
2024/02/28 10:16:42;;;;;;;24.10;9.27;;;8.90;99.70;;;;;;5099289;28;20106;-71
2024/02/28 10:19:08;;;;;;;18.40;9.18;;;9.00;99.70;;;;;;5090884;28;20036;-71
2024/02/28 10:21:33;;;;;;;19.15;7.10;;;9.00;99.80;;;;;;5093520;28;20039;-72
2024/02/28 10:23:59;;;;;;;23.52;11.75;;;8.90;99.80;;;;;;5102354;28;20502;-71
2024/02/28 10:26:25;;;;;;;14.85;6.65;;;9.00;99.90;;;;;;5102864;28;20463;-71
2024/02/28 10:28:52;;;;;;;14.50;6.28;;;9.00;99.90;;;;;;5095266;28;20061;-71
2024/02/28 10:31:18;;;;;;;20.80;9.27;;;9.00;99.90;;;;;;5096806;28;20032;-71
2024/02/28 10:33:43;;;;;;;16.48;9.00;;;9.10;99.90;;;;;;5090879;28;20024;-71
2024/02/28 10:36:09;;;;;;;30.65;12.68;;;9.10;99.90;;;;;;5090200;28;20119;-70
2024/02/28 10:38:38;;;;;;;21.90;10.45;;;9.10;99.90;;;;;;5107246;28;20108;-69
2024/02/28 10:41:04;;;;;;;22.55;12.20;;;9.20;99.90;;;;;;5102556;28;20350;-70
2024/02/28 10:43:30;;;;;;;21.02;11.30;;;9.20;99.90;;;;;;5088543;28;20489;-70
2024/02/28 10:45:59;;;;;;;27.35;10.00;;;9.20;99.90;;;;;;5100345;28;20027;-70
2024/02/28 10:48:26;;;;;;;21.40;8.30;;;9.20;99.90;;;;;;5091816;28;20042;-70
2024/02/28 10:50:54;;;;;;;14.80;7.45;;;9.20;99.90;;;;;;5104583;28;20482;-70
2024/02/28 10:53:23;;;;;;;15.77;7.45;;;9.30;99.90;;;;;;5095315;28;20051;-70
2024/02/28 10:55:51;;;;;;;18.35;9.88;;;9.30;99.90;;;;;;5094517;28;20456;-70
2024/02/28 10:58:18;;;;;;;22.13;12.10;;;9.40;99.90;;;;;;5088679;28;20082;-70
2024/02/28 11:00:45;;;;;;;11.20;5.00;;;9.40;99.90;;;;;;5090628;28;20032;-70
2024/02/28 11:03:12;;;;;;;21.08;10.38;;;9.40;99.90;;;;;;5104308;28;20110;-69
2024/02/28 11:05:42;;;;;;;19.05;10.02;;;9.40;99.90;;;;;;5091412;28;20107;-70
2024/02/28 11:08:19;;;;;;;19.67;11.10;;;9.50;99.90;;;;;;5099809;28;20118;-70
2024/02/28 11:10:47;;;;;;;11.02;5.82;;;9.50;99.90;;;;;;5101010;28;20035;-69
2024/02/28 11:13:26;;;;;;;14.50;7.55;;;9.50;99.90;;;;;;5088036;28;20174;-70
2024/02/28 11:15:57;;;;;;;15.32;6.78;;;9.50;99.90;;;;;;5098498;28;20467;-70
2024/02/28 11:18:22;;;;;;;22.17;10.00;;;9.50;99.90;;;;;;5089791;28;20372;-70
2024/02/28 11:20:48;;;;;;;29.23;11.68;;;9.60;99.90;;;;;;5100968;28;20024;-70
2024/02/28 11:23:16;;;;;;;20.52;9.93;;;9.60;99.90;;;;;;5101136;28;20034;-71
2024/02/28 11:25:42;;;;;;;25.95;10.55;;;9.60;99.90;;;;;;5109486;28;20380;-71
2024/02/28 11:28:11;;;;;;;17.02;10.43;;;9.60;99.90;;;;;;5087344;28;20050;-71
2024/02/28 11:30:37;;;;;;;15.55;7.00;;;9.60;99.90;;;;;;5093715;28;20686;-70
2024/02/28 11:33:03;;;;;;;14.52;7.85;;;9.70;99.90;;;;;;5101656;28;20118;-71
2024/02/28 11:35:28;;;;;;;28.60;12.25;;;9.70;99.90;;;;;;5088614;28;20020;-70
2024/02/28 11:37:58;;;;;;;20.48;9.35;;;9.80;99.90;;;;;;5088463;28;20434;-71
2024/02/28 11:40:25;;;;;;;9.57;4.43;;;9.80;99.90;;;;;;5097086;28;20494;-70
2024/02/28 11:42:51;;;;;;;12.80;5.18;;;9.90;99.90;;;;;;5100899;28;20394;-70
2024/02/28 11:45:20;;;;;;;17.55;7.60;;;9.90;99.90;;;;;;5093739;28;20037;-70
2024/02/28 11:47:47;;;;;;;17.73;8.38;;;9.90;99.90;;;;;;5109104;28;20036;-70
2024/02/28 11:50:14;;;;;;;13.40;6.25;;;9.90;99.90;;;;;;5101309;28;20045;-70
2024/02/28 11:52:40;;;;;;;14.60;6.65;;;10.00;99.90;;;;;;5101515;28;20043;-71
2024/02/28 11:55:06;;;;;;;12.02;5.85;;;10.00;99.90;;;;;;5094552;28;20039;-70
2024/02/28 11:57:33;;;;;;;9.30;5.47;;;10.00;99.90;;;;;;5094038;28;20031;-70
2024/02/28 12:00:07;;;;;;;11.32;5.55;;;10.00;99.90;;;;;;5094064;28;20081;-70
2024/02/28 12:02:33;;;;;;;17.52;7.22;;;10.10;99.90;;;;;;5086777;28;20089;-71
2024/02/28 12:05:04;;;;;;;21.35;8.65;;;10.10;99.90;;;;;;5100932;28;20025;-70
2024/02/28 12:07:30;;;;;;;10.40;5.78;;;10.20;99.90;;;;;;5091000;28;20035;-70
2024/02/28 12:09:59;;;;;;;13.80;7.05;;;10.20;99.90;;;;;;5098805;28;20051;-70
2024/02/28 12:12:24;;;;;;;15.10;6.80;;;10.30;99.90;;;;;;5094681;28;20043;-70
2024/02/28 12:14:50;;;;;;;5.25;3.53;;;10.30;99.90;;;;;;5108645;28;20032;-71
2024/02/28 12:17:16;;;;;;;13.98;7.70;;;10.30;99.90;;;;;;5091550;28;20135;-71
2024/02/28 12:19:42;;;;;;;6.35;4.13;;;10.40;99.90;;;;;;5107765;28;20023;-70
2024/02/28 12:22:08;;;;;;;14.13;7.82;;;10.50;99.90;;;;;;5104661;28;20036;-70
2024/02/28 12:24:34;;;;;;;20.20;8.52;;;10.50;99.90;;;;;;5086824;28;20028;-71
2024/02/28 12:27:00;;;;;;;21.70;11.15;;;10.50;99.90;;;;;;5087871;28;20048;-70
2024/02/28 12:29:25;;;;;;;4.10;2.95;;;10.50;99.90;;;;;;5093835;28;20024;-70
2024/02/28 12:31:51;;;;;;;26.67;12.85;;;10.60;99.90;;;;;;5091450;28;20034;-72
2024/02/28 12:34:21;;;;;;;22.60;8.90;;;10.60;99.90;;;;;;5101398;28;20130;-71
2024/02/28 12:36:46;;;;;;;26.08;8.43;;;10.50;99.90;;;;;;5093453;28;20028;-70
2024/02/28 12:39:12;;;;;;;25.25;9.80;;;10.60;99.90;;;;;;5096044;28;20024;-70